Time;durP1;ratioP1;P1;durP2;ratioP2;P2;SDS_P1;SDS_P2;PMS_P1;PMS_P2;Temp;Humidity;BMP_temperature;BMP_pressure;BME280_temperature;BME280_humidity;BME280_pressure;Samples;Min_cycle;Max_cycle;Signal;HPM_P1;HPM_P2
2021/12/13 00:00:09;;;;;;;6.80;5.20;;;5.10;99.90;;;;;;5016990;28;20202;-89
2021/12/13 00:06:37;;;;;;;7.33;5.43;;;5.20;99.90;;;;;;5036359;28;20647;-89
2021/12/13 00:09:12;;;;;;;8.13;5.43;;;5.20;99.90;;;;;;5018530;28;20235;-89
2021/12/13 00:11:41;;;;;;;8.93;5.77;;;5.20;99.90;;;;;;5018785;28;20189;-89
2021/12/13 00:14:39;;;;;;;7.63;5.73;;;5.10;99.90;;;;;;5018625;28;20182;-89
2021/12/13 00:17:20;;;;;;;7.90;5.80;;;5.20;99.90;;;;;;5029534;28;20210;-90
2021/12/13 00:20:05;;;;;;;8.93;5.43;;;5.20;99.90;;;;;;4998743;28;20194;-90
2021/12/13 00:22:41;;;;;;;6.57;5.47;;;5.20;99.90;;;;;;4998838;28;20245;-89
2021/12/13 00:25:13;;;;;;;7.23;5.50;;;5.20;99.90;;;;;;4999072;28;20212;-89
2021/12/13 00:27:53;;;;;;;8.33;5.67;;;5.20;99.90;;;;;;4998968;28;20175;-89
2021/12/13 00:30:51;;;;;;;7.43;5.40;;;5.10;99.90;;;;;;4998797;28;20210;-89
2021/12/13 00:33:32;;;;;;;7.87;5.73;;;5.10;99.90;;;;;;4998967;28;20187;-89
2021/12/13 00:36:24;;;;;;;9.00;6.33;;;5.20;99.90;;;;;;4998869;28;20193;-89
2021/12/13 00:38:55;;;;;;;8.33;6.33;;;5.20;99.90;;;;;;4998392;28;20217;-90
2021/12/13 00:41:26;;;;;;;8.13;6.57;;;5.10;99.90;;;;;;4998557;28;20195;-89
2021/12/13 00:43:58;;;;;;;9.60;6.13;;;5.20;99.90;;;;;;4998499;28;20285;-89
2021/12/13 00:46:26;;;;;;;8.33;6.30;;;5.10;99.90;;;;;;4998693;28;20176;-89
2021/12/13 00:48:56;;;;;;;9.07;7.07;;;5.20;99.90;;;;;;4998384;28;20206;-89
2021/12/13 00:51:27;;;;;;;9.10;6.43;;;5.20;99.90;;;;;;4998557;28;20209;-89
2021/12/13 00:53:56;;;;;;;8.43;6.87;;;5.20;99.90;;;;;;4998611;28;20183;-89
2021/12/13 00:56:48;;;;;;;10.40;7.00;;;5.10;99.90;;;;;;4998592;28;20185;-89
2021/12/13 00:59:25;;;;;;;11.03;7.27;;;5.20;99.90;;;;;;4997813;28;20204;-89
2021/12/13 01:02:11;;;;;;;9.23;6.37;;;5.10;99.90;;;;;;4998032;28;20180;-89
2021/12/13 01:04:58;;;;;;;9.70;6.73;;;5.10;99.90;;;;;;4998322;28;20169;-89
2021/12/13 01:07:45;;;;;;;9.43;6.97;;;5.10;99.90;;;;;;4998623;28;20178;-89
2021/12/13 01:10:36;;;;;;;9.90;6.67;;;5.00;99.90;;;;;;4997212;28;20201;-89
2021/12/13 01:13:05;;;;;;;9.17;6.67;;;5.10;99.90;;;;;;4997607;28;20192;-89
2021/12/13 01:15:40;;;;;;;8.60;5.90;;;5.10;99.90;;;;;;4998097;28;20182;-89
2021/12/13 01:18:27;;;;;;;7.97;6.23;;;5.00;99.90;;;;;;4998103;28;20190;-89
2021/12/13 01:21:16;;;;;;;9.80;6.80;;;5.10;99.90;;;;;;4997935;28;20179;-89
2021/12/13 01:23:52;;;;;;;9.23;6.17;;;5.10;99.90;;;;;;4997661;28;20205;-89
2021/12/13 01:28:55;;;;;;;10.37;6.60;;;5.10;99.90;;;;;;5013709;28;20784;-89
2021/12/13 01:31:30;;;;;;;8.90;6.60;;;5.10;99.90;;;;;;4997727;28;20193;-90
2021/12/13 01:33:58;;;;;;;9.80;6.50;;;5.10;99.90;;;;;;4997837;28;20178;-89
2021/12/13 01:36:42;;;;;;;11.17;7.40;;;5.10;99.90;;;;;;4997471;28;20182;-89
2021/12/13 01:39:12;;;;;;;9.40;6.93;;;5.00;99.90;;;;;;4997124;28;20212;-89
2021/12/13 01:41:50;;;;;;;8.27;6.57;;;5.00;99.90;;;;;;4997737;28;20277;-89
2021/12/13 01:44:22;;;;;;;8.87;7.00;;;5.00;99.90;;;;;;4997326;28;20182;-89
2021/12/13 01:46:53;;;;;;;12.23;7.00;;;5.00;99.90;;;;;;4997619;28;20172;-89
2021/12/13 01:49:19;;;;;;;10.53;7.70;;;5.00;99.90;;;;;;4997033;28;20203;-90
2021/12/13 01:51:47;;;;;;;9.13;6.40;;;5.00;99.90;;;;;;4997549;28;20178;-90
2021/12/13 01:54:19;;;;;;;9.27;6.77;;;5.00;99.90;;;;;;4997408;28;20179;-89
2021/12/13 01:57:21;;;;;;;12.43;7.83;;;5.10;99.90;;;;;;4997157;28;20176;-89
2021/12/13 02:02:29;;;;;;;9.50;6.77;;;5.10;99.90;;;;;;5033315;28;20278;-89
2021/12/13 02:05:00;;;;;;;10.53;7.43;;;5.00;99.90;;;;;;5016453;28;20179;-89
2021/12/13 02:07:40;;;;;;;12.87;7.83;;;5.10;99.90;;;;;;5016704;28;20176;-89
2021/12/13 02:10:12;;;;;;;10.20;6.63;;;5.00;99.90;;;;;;5016608;28;20231;-89
2021/12/13 02:12:42;;;;;;;9.67;7.47;;;5.10;99.90;;;;;;5016432;28;20178;-89
2021/12/13 02:17:54;;;;;;;10.87;7.47;;;5.10;99.90;;;;;;5013418;28;20175;-89
2021/12/13 02:20:25;;;;;;;10.80;8.07;;;5.10;99.90;;;;;;4996610;28;20198;-89
2021/12/13 02:26:14;;;;;;;10.30;7.83;;;5.00;99.90;;;;;;5013073;28;20181;-89
2021/12/13 02:28:44;;;;;;;12.37;8.13;;;5.00;99.90;;;;;;4996594;28;20201;-90
2021/12/13 02:31:14;;;;;;;11.10;8.00;;;5.00;99.90;;;;;;4996752;28;20188;-90
2021/12/13 02:33:46;;;;;;;12.13;8.17;;;5.00;99.90;;;;;;4996402;28;20203;-89
2021/12/13 02:36:19;;;;;;;9.70;7.00;;;5.00;99.90;;;;;;4996665;28;20180;-90
2021/12/13 02:38:48;;;;;;;11.20;7.40;;;5.00;99.90;;;;;;4996442;28;20218;-90
2021/12/13 02:41:16;;;;;;;9.90;7.87;;;5.00;99.90;;;;;;4996658;28;20176;-89
2021/12/13 02:43:45;;;;;;;8.80;7.33;;;5.00;99.90;;;;;;4996646;28;20609;-89
2021/12/13 02:46:12;;;;;;;10.40;7.50;;;5.00;99.90;;;;;;5003154;28;20181;-89
2021/12/13 02:48:40;;;;;;;13.50;8.07;;;5.00;99.90;;;;;;5015803;28;20193;-90
2021/12/13 02:55:09;;;;;;;12.20;8.23;;;5.00;99.90;;;;;;5033509;28;20170;-89
2021/12/13 02:57:39;;;;;;;11.37;8.37;;;5.00;99.90;;;;;;5015968;28;20256;-89
2021/12/13 03:00:23;;;;;;;11.90;7.80;;;5.00;99.90;;;;;;5015837;28;20205;-89
2021/12/13 03:02:53;;;;;;;11.27;7.97;;;5.00;99.90;;;;;;5015904;28;20201;-89
2021/12/13 03:05:29;;;;;;;11.53;8.10;;;5.00;99.90;;;;;;5015988;28;20181;-89
2021/12/13 03:07:59;;;;;;;10.73;8.20;;;5.00;99.90;;;;;;5015672;28;20650;-89
2021/12/13 03:10:33;;;;;;;11.60;8.43;;;5.00;99.90;;;;;;5015687;28;20208;-89
2021/12/13 03:13:52;;;;;;;12.77;8.20;;;5.00;99.90;;;;;;5015996;28;20258;-89
2021/12/13 03:16:22;;;;;;;11.00;7.57;;;5.00;99.90;;;;;;5015802;28;20167;-90
2021/12/13 03:18:59;;;;;;;11.13;8.03;;;5.00;99.90;;;;;;5015483;28;20207;-89
2021/12/13 03:21:40;;;;;;;10.60;7.50;;;5.10;99.90;;;;;;5015907;28;20180;-89
2021/12/13 03:24:18;;;;;;;10.03;7.57;;;5.10;99.90;;;;;;5015460;28;20248;-89
2021/12/13 03:26:50;;;;;;;11.40;7.47;;;5.10;99.90;;;;;;5015722;28;20204;-89
2021/12/13 03:29:54;;;;;;;9.40;7.17;;;5.10;99.90;;;;;;5015435;28;20243;-90
2021/12/13 03:32:22;;;;;;;10.13;7.63;;;5.10;99.90;;;;;;5014405;28;20196;-89
2021/12/13 03:35:06;;;;;;;10.00;7.70;;;5.10;99.90;;;;;;5017339;28;20274;-89
2021/12/13 03:37:33;;;;;;;11.23;7.97;;;5.10;99.90;;;;;;5019508;28;20176;-89
2021/12/13 03:40:04;;;;;;;10.97;7.97;;;5.10;99.90;;;;;;5019150;28;20657;-89
2021/12/13 03:42:37;;;;;;;10.33;7.40;;;5.10;99.90;;;;;;5019266;28;20347;-90
2021/12/13 03:45:12;;;;;;;11.20;7.37;;;5.10;99.90;;;;;;5019028;28;20263;-89
2021/12/13 03:47:44;;;;;;;11.97;7.67;;;5.20;99.90;;;;;;5019130;28;20266;-89
2021/12/13 03:50:18;;;;;;;11.37;8.00;;;5.20;99.90;;;;;;5018533;28;20659;-89
2021/12/13 03:52:47;;;;;;;10.87;7.33;;;5.10;99.90;;;;;;5019340;28;20176;-89
2021/12/13 03:55:16;;;;;;;10.77;7.23;;;5.20;99.90;;;;;;5019307;28;20186;-90
2021/12/13 03:58:06;;;;;;;10.07;7.60;;;5.20;99.90;;;;;;5019077;28;20187;-89
2021/12/13 04:00:43;;;;;;;11.43;7.67;;;5.10;99.90;;;;;;5019042;28;20215;-89
2021/12/13 04:03:11;;;;;;;8.77;6.50;;;5.20;99.90;;;;;;5019291;28;20214;-89
2021/12/13 04:05:37;;;;;;;10.27;7.13;;;5.20;99.90;;;;;;5018761;28;20185;-89
2021/12/13 04:08:07;;;;;;;9.70;7.73;;;5.20;99.90;;;;;;5019021;28;20172;-90
2021/12/13 04:11:08;;;;;;;9.07;6.50;;;5.20;99.90;;;;;;5018755;28;20186;-89
2021/12/13 04:14:00;;;;;;;11.17;7.67;;;5.20;99.90;;;;;;5007911;28;20228;-90
2021/12/13 04:16:47;;;;;;;11.80;7.60;;;5.20;99.90;;;;;;5018291;28;20235;-89
2021/12/13 04:19:20;;;;;;;9.70;7.27;;;5.20;99.90;;;;;;5018323;28;20206;-89
2021/12/13 04:21:58;;;;;;;8.87;6.70;;;5.20;99.90;;;;;;5018995;28;20195;-89
2021/12/13 04:24:32;;;;;;;9.97;7.17;;;5.20;99.90;;;;;;5018838;28;20182;-89
2021/12/13 04:27:08;;;;;;;10.13;7.50;;;5.20;99.90;;;;;;5018684;28;20174;-89
2021/12/13 04:29:40;;;;;;;10.93;7.53;;;5.20;99.90;;;;;;5018257;28;20550;-89
2021/12/13 04:32:12;;;;;;;10.20;6.90;;;5.20;99.90;;;;;;5018682;28;20176;-90
2021/12/13 04:34:42;;;;;;;10.07;6.90;;;5.20;99.90;;;;;;5018264;28;20261;-90
2021/12/13 04:37:19;;;;;;;8.73;6.50;;;5.20;99.90;;;;;;5018538;28;20184;-91
2021/12/13 04:39:54;;;;;;;9.47;6.70;;;5.20;99.90;;;;;;5017897;28;20224;-90
2021/12/13 04:42:22;;;;;;;10.93;7.13;;;5.20;99.90;;;;;;5017926;28;20215;-90
2021/12/13 04:45:00;;;;;;;10.10;7.10;;;5.20;99.90;;;;;;5017649;28;20181;-90
2021/12/13 04:47:53;;;;;;;9.07;6.47;;;5.20;99.90;;;;;;5018088;28;20197;-90
2021/12/13 04:50:25;;;;;;;9.00;6.60;;;5.20;99.90;;;;;;5012674;28;20307;-90
2021/12/13 04:52:52;;;;;;;10.23;6.57;;;5.30;99.90;;;;;;5018136;28;20193;-90
2021/12/13 04:55:24;;;;;;;8.97;6.30;;;5.20;99.90;;;;;;5018554;28;20185;-90
2021/12/13 04:57:54;;;;;;;9.27;6.80;;;5.20;99.90;;;;;;5018189;28;20181;-89
2021/12/13 05:00:36;;;;;;;7.63;6.30;;;5.20;99.90;;;;;;5016758;28;20284;-90
2021/12/13 05:03:24;;;;;;;9.77;7.50;;;5.20;99.90;;;;;;5017879;28;20219;-90
2021/12/13 05:05:50;;;;;;;8.80;6.93;;;5.20;99.90;;;;;;5017740;28;20166;-90
2021/12/13 05:08:18;;;;;;;9.37;7.30;;;5.30;99.90;;;;;;5017750;28;20251;-89
2021/12/13 05:10:48;;;;;;;10.90;7.67;;;5.30;99.90;;;;;;5017716;28;20174;-90
2021/12/13 05:13:28;;;;;;;10.57;7.20;;;5.30;99.90;;;;;;5017713;28;20179;-90
2021/12/13 05:15:57;;;;;;;11.20;7.93;;;5.30;99.90;;;;;;5017873;28;20197;-89
2021/12/13 05:18:32;;;;;;;12.03;7.60;;;5.20;99.90;;;;;;5017747;28;20206;-89
2021/12/13 05:21:08;;;;;;;9.53;7.17;;;5.30;99.90;;;;;;5017242;28;20188;-89
2021/12/13 05:23:55;;;;;;;9.67;6.97;;;5.30;99.90;;;;;;5016644;28;20199;-89
2021/12/13 05:26:45;;;;;;;9.47;6.80;;;5.30;99.90;;;;;;5017520;28;20177;-90
2021/12/13 05:29:32;;;;;;;10.37;7.20;;;5.20;99.90;;;;;;5017217;28;20199;-90
2021/12/13 05:32:16;;;;;;;10.20;7.57;;;5.20;99.90;;;;;;5017231;28;20205;-89
2021/12/13 05:35:01;;;;;;;9.93;7.00;;;5.20;99.90;;;;;;5017350;28;20173;-89
2021/12/13 05:37:42;;;;;;;12.13;7.80;;;5.20;99.90;;;;;;5018398;28;20177;-89
2021/12/13 05:40:15;;;;;;;11.53;7.20;;;5.20;99.90;;;;;;5012540;28;20210;-89
2021/12/13 05:42:51;;;;;;;9.73;6.73;;;5.20;99.90;;;;;;5013958;28;20214;-89
2021/12/13 05:45:31;;;;;;;10.13;7.10;;;5.10;99.90;;;;;;4997707;28;20229;-89
2021/12/13 05:48:01;;;;;;;10.13;7.57;;;5.20;99.90;;;;;;4997529;28;20180;-89
2021/12/13 05:50:35;;;;;;;9.20;7.20;;;5.20;99.90;;;;;;4997601;28;20213;-90
2021/12/13 05:53:24;;;;;;;9.90;6.90;;;5.20;99.90;;;;;;4997725;28;20266;-90
2021/12/13 05:56:15;;;;;;;11.17;7.33;;;5.20;99.90;;;;;;4996700;28;20189;-89
2021/12/13 05:58:55;;;;;;;10.17;7.23;;;5.20;99.90;;;;;;4996072;28;20254;-89
2021/12/13 06:02:06;;;;;;;11.07;7.27;;;5.20;99.90;;;;;;5007291;28;20188;-89
2021/12/13 06:04:38;;;;;;;10.53;7.13;;;5.20;99.90;;;;;;4960157;28;20196;-90
2021/12/13 06:07:21;;;;;;;10.53;7.10;;;5.20;99.90;;;;;;5010078;28;20237;-90
2021/12/13 06:10:05;;;;;;;10.00;6.57;;;5.20;99.90;;;;;;5015922;28;20200;-89
2021/12/13 06:12:38;;;;;;;10.03;7.07;;;5.20;99.90;;;;;;5016341;28;20176;-90
2021/12/13 06:15:23;;;;;;;9.57;7.13;;;5.20;99.90;;;;;;5016573;28;20175;-89
2021/12/13 06:18:21;;;;;;;10.50;7.67;;;5.20;99.90;;;;;;5016532;28;20185;-90
2021/12/13 06:20:58;;;;;;;8.83;6.63;;;5.20;99.90;;;;;;5016239;28;20188;-90
2021/12/13 06:23:28;;;;;;;14.47;7.90;;;5.20;99.90;;;;;;5016440;28;20357;-90
2021/12/13 06:26:04;;;;;;;13.93;7.90;;;5.10;99.90;;;;;;5015692;28;20176;-90
2021/12/13 06:28:33;;;;;;;12.30;8.30;;;5.10;99.90;;;;;;5015971;28;20204;-90
2021/12/13 06:31:20;;;;;;;13.20;7.83;;;5.10;99.90;;;;;;5015854;28;20185;-90
2021/12/13 06:33:51;;;;;;;14.23;7.80;;;5.10;99.90;;;;;;5012572;28;20233;-90
2021/12/13 06:36:42;;;;;;;13.03;7.80;;;5.10;99.90;;;;;;4996395;28;20187;-90
2021/12/13 06:39:17;;;;;;;12.30;7.17;;;5.10;99.90;;;;;;4996529;28;20214;-90
2021/12/13 06:41:58;;;;;;;13.40;7.07;;;5.10;99.90;;;;;;5011417;28;20177;-90
2021/12/13 06:44:29;;;;;;;12.53;7.57;;;5.10;99.90;;;;;;5016256;28;20203;-90
2021/12/13 06:47:07;;;;;;;12.90;8.40;;;5.10;99.90;;;;;;5016229;28;20174;-90
2021/12/13 06:49:56;;;;;;;13.23;8.53;;;5.20;99.90;;;;;;5015984;28;20200;-90
2021/12/13 06:52:32;;;;;;;14.97;8.87;;;5.10;99.90;;;;;;5015738;28;20264;-90
2021/12/13 06:55:03;;;;;;;12.90;8.00;;;5.10;99.90;;;;;;5016263;28;20232;-90
2021/12/13 06:57:37;;;;;;;14.60;9.00;;;5.10;99.90;;;;;;5015550;28;20263;-90
2021/12/13 07:00:06;;;;;;;13.47;9.40;;;5.00;99.90;;;;;;5015060;28;20295;-90
2021/12/13 07:02:38;;;;;;;16.77;9.40;;;5.00;99.90;;;;;;5015793;28;20208;-90
2021/12/13 07:05:20;;;;;;;14.07;8.47;;;5.00;99.90;;;;;;5015784;28;20191;-90
2021/12/13 07:07:49;;;;;;;13.23;8.33;;;5.00;99.90;;;;;;5015713;28;20219;-90
2021/12/13 07:10:20;;;;;;;10.93;7.97;;;5.10;99.90;;;;;;5015318;28;20290;-90
2021/12/13 07:12:56;;;;;;;14.90;8.20;;;5.10;99.90;;;;;;5015918;28;20180;-90
2021/12/13 07:15:27;;;;;;;16.57;8.47;;;5.10;99.90;;;;;;5015455;28;20194;-91
2021/12/13 07:18:06;;;;;;;14.70;8.57;;;5.10;99.90;;;;;;5015787;28;20179;-89
2021/12/13 07:20:40;;;;;;;11.83;7.67;;;5.10;99.90;;;;;;5015407;28;20273;-90
2021/12/13 07:23:06;;;;;;;13.57;8.37;;;5.10;99.90;;;;;;5015230;28;20200;-90
2021/12/13 07:25:40;;;;;;;16.57;10.77;;;5.10;99.90;;;;;;5015204;28;20175;-90
2021/12/13 07:28:08;;;;;;;15.90;9.97;;;5.10;99.90;;;;;;5015317;28;20257;-90
2021/12/13 07:30:36;;;;;;;14.53;8.93;;;5.10;99.90;;;;;;5015300;28;20190;-90
2021/12/13 07:33:11;;;;;;;14.43;9.40;;;5.10;99.90;;;;;;5015568;28;20200;-90
2021/12/13 07:35:47;;;;;;;18.53;9.63;;;5.10;99.90;;;;;;5015915;28;20182;-90
2021/12/13 07:38:19;;;;;;;15.17;9.67;;;5.10;99.90;;;;;;5015648;28;20186;-90
2021/12/13 07:40:49;;;;;;;14.17;9.67;;;5.10;99.90;;;;;;5015622;28;20192;-90
2021/12/13 07:43:39;;;;;;;13.87;9.13;;;5.10;99.90;;;;;;5015672;28;20273;-90
2021/12/13 07:46:27;;;;;;;15.27;9.13;;;5.10;99.90;;;;;;5008655;28;20184;-90
2021/12/13 07:48:57;;;;;;;14.87;9.07;;;5.10;99.90;;;;;;5015568;28;20195;-90
2021/12/13 07:51:36;;;;;;;13.80;8.90;;;5.20;99.90;;;;;;5015721;28;20172;-90
2021/12/13 07:54:16;;;;;;;15.13;9.10;;;5.20;99.90;;;;;;5015569;28;20163;-90
2021/12/13 07:56:53;;;;;;;16.30;9.87;;;5.20;99.90;;;;;;5015609;28;20256;-90
2021/12/13 07:59:22;;;;;;;16.93;9.00;;;5.20;99.90;;;;;;5015211;28;20204;-90
2021/12/13 08:01:53;;;;;;;15.43;10.20;;;5.20;99.90;;;;;;5015046;28;20665;-90
2021/12/13 08:04:27;;;;;;;18.80;9.63;;;5.20;99.90;;;;;;5015447;28;20209;-90
2021/12/13 08:06:57;;;;;;;16.90;9.67;;;5.20;99.90;;;;;;5015358;28;20176;-90
2021/12/13 08:09:27;;;;;;;15.73;9.03;;;5.20;99.90;;;;;;5015207;28;20201;-90
2021/12/13 08:12:00;;;;;;;42.23;23.60;;;5.20;99.90;;;;;;5015417;28;20222;-90
2021/12/13 08:14:36;;;;;;;19.53;10.57;;;5.20;99.90;;;;;;5015424;28;20180;-90
2021/12/13 08:17:22;;;;;;;22.07;11.23;;;5.20;99.90;;;;;;5015526;28;20174;-90
2021/12/13 08:20:07;;;;;;;19.80;10.33;;;5.30;99.90;;;;;;5015152;28;20205;-90
2021/12/13 08:22:54;;;;;;;15.07;10.33;;;5.30;99.90;;;;;;5018712;28;20232;-90
2021/12/13 08:25:27;;;;;;;16.60;9.33;;;5.30;99.90;;;;;;5018902;28;20182;-90
2021/12/13 08:27:58;;;;;;;16.77;9.40;;;5.30;99.90;;;;;;5018443;28;20178;-90
2021/12/13 08:30:32;;;;;;;17.80;10.00;;;5.30;99.90;;;;;;5018618;28;20204;-90
2021/12/13 08:33:06;;;;;;;19.30;11.27;;;5.40;99.90;;;;;;5018684;28;20176;-86
2021/12/13 08:35:55;;;;;;;20.20;10.60;;;5.40;99.90;;;;;;5018604;28;20174;-89
2021/12/13 08:38:30;;;;;;;20.93;12.33;;;5.40;99.90;;;;;;5012966;28;20211;-89
2021/12/13 08:41:00;;;;;;;18.40;11.00;;;5.40;99.90;;;;;;5018265;28;20239;-89
2021/12/13 08:43:43;;;;;;;18.27;11.37;;;5.50;99.90;;;;;;5017906;28;20251;-89
2021/12/13 08:46:13;;;;;;;15.60;10.17;;;5.50;99.90;;;;;;5018030;28;20186;-89
2021/12/13 08:48:50;;;;;;;15.27;9.47;;;5.50;99.90;;;;;;5018266;28;20233;-89
2021/12/13 08:51:20;;;;;;;17.20;10.60;;;5.50;99.90;;;;;;5018361;28;20243;-89
2021/12/13 08:53:58;;;;;;;15.77;10.13;;;5.50;99.90;;;;;;5017908;28;20220;-89
2021/12/13 08:56:26;;;;;;;15.20;9.90;;;5.50;99.90;;;;;;5018061;28;20268;-89
2021/12/13 08:59:03;;;;;;;18.60;10.30;;;5.50;99.90;;;;;;5018243;28;20228;-89
2021/12/13 09:01:49;;;;;;;16.43;10.03;;;5.60;99.90;;;;;;5018162;28;20184;-89
2021/12/13 09:04:27;;;;;;;16.87;11.00;;;5.60;99.90;;;;;;5018130;28;20258;-89
2021/12/13 09:07:01;;;;;;;16.10;10.90;;;5.60;99.90;;;;;;5018057;28;20169;-89
2021/12/13 09:09:28;;;;;;;19.97;11.73;;;5.60;99.90;;;;;;5014089;28;20198;-90
2021/12/13 09:12:08;;;;;;;16.53;10.27;;;5.60;99.90;;;;;;4998244;28;20210;-90
2021/12/13 09:14:39;;;;;;;16.03;10.73;;;5.60;99.90;;;;;;5010806;28;20168;-89
2021/12/13 09:17:23;;;;;;;16.93;10.20;;;5.60;99.90;;;;;;5017521;28;20182;-89
2021/12/13 09:20:07;;;;;;;15.40;10.63;;;5.70;99.90;;;;;;5014630;28;20226;-89
2021/12/13 09:22:46;;;;;;;17.63;10.83;;;5.70;99.90;;;;;;5015306;28;20223;-89
2021/12/13 09:25:48;;;;;;;15.20;10.03;;;5.70;99.90;;;;;;5017549;28;20200;-89
2021/12/13 09:28:29;;;;;;;14.33;9.93;;;5.70;99.90;;;;;;5016532;28;20204;-89
2021/12/13 09:31:08;;;;;;;16.97;10.70;;;5.80;99.90;;;;;;5033696;28;20179;-89
2021/12/13 09:33:38;;;;;;;16.60;10.17;;;5.80;99.90;;;;;;5016653;28;20178;-89
2021/12/13 09:36:09;;;;;;;17.80;10.67;;;5.80;99.90;;;;;;5033999;28;20657;-89
2021/12/13 09:38:40;;;;;;;17.60;10.10;;;5.80;99.90;;;;;;5017077;28;20208;-89
2021/12/13 09:41:53;;;;;;;17.57;10.43;;;5.90;99.90;;;;;;5017299;28;20182;-89
2021/12/13 09:44:32;;;;;;;20.00;11.90;;;5.90;99.90;;;;;;4980299;28;20212;-89
2021/12/13 09:47:12;;;;;;;17.97;11.17;;;6.00;99.90;;;;;;4996494;28;20242;-89
2021/12/13 09:49:38;;;;;;;18.67;11.30;;;6.10;99.90;;;;;;5019572;28;20206;-89
2021/12/13 09:52:19;;;;;;;17.40;10.70;;;6.20;99.90;;;;;;5017196;28;20204;-89
2021/12/13 09:54:54;;;;;;;16.47;10.13;;;6.20;99.90;;;;;;5016676;28;20221;-89
2021/12/13 09:57:25;;;;;;;17.57;10.50;;;6.30;99.90;;;;;;5016974;28;20295;-90
2021/12/13 09:59:54;;;;;;;16.73;9.70;;;6.30;99.90;;;;;;5033146;28;20221;-90
2021/12/13 10:02:33;;;;;;;17.10;10.67;;;6.30;99.90;;;;;;5013369;28;20175;-89
2021/12/13 10:05:04;;;;;;;17.53;11.00;;;6.40;99.90;;;;;;5030630;28;20199;-89
2021/12/13 10:07:34;;;;;;;15.77;10.87;;;6.40;99.90;;;;;;5033425;28;20167;-89
2021/12/13 10:10:06;;;;;;;19.37;11.87;;;6.40;99.90;;;;;;5049270;28;20416;-89
2021/12/13 10:12:48;;;;;;;18.63;12.27;;;6.40;99.90;;;;;;5033278;28;20206;-89
2021/12/13 10:15:24;;;;;;;16.23;11.70;;;6.40;99.90;;;;;;5033131;28;20186;-90
2021/12/13 10:17:55;;;;;;;15.60;11.83;;;6.40;99.90;;;;;;5033265;28;20178;-89
2021/12/13 10:20:23;;;;;;;19.73;11.77;;;6.50;99.90;;;;;;5032947;28;20247;-89
2021/12/13 10:22:50;;;;;;;18.50;11.33;;;6.50;99.90;;;;;;5016599;28;20205;-90
2021/12/13 10:25:21;;;;;;;17.37;11.30;;;6.50;99.90;;;;;;5033014;28;20315;-89
2021/12/13 10:27:48;;;;;;;18.17;11.53;;;6.50;99.90;;;;;;5049335;28;20171;-89
2021/12/13 10:30:21;;;;;;;19.90;12.27;;;6.60;99.90;;;;;;5032766;28;20202;-89
2021/12/13 10:32:48;;;;;;;20.00;11.77;;;6.50;99.90;;;;;;5016295;28;20177;-90
2021/12/13 10:35:18;;;;;;;20.27;11.87;;;6.50;99.90;;;;;;5032628;28;20177;-89
2021/12/13 10:37:50;;;;;;;19.27;12.83;;;6.50;99.90;;;;;;5032913;28;20179;-89
2021/12/13 10:40:28;;;;;;;19.60;12.27;;;6.40;99.90;;;;;;5032318;28;20216;-89
2021/12/13 10:43:06;;;;;;;17.07;10.97;;;6.30;99.90;;;;;;5032301;28;20203;-90
2021/12/13 10:45:39;;;;;;;17.30;10.83;;;6.30;99.90;;;;;;5032383;28;20178;-89
2021/12/13 10:48:09;;;;;;;16.63;11.57;;;6.40;99.90;;;;;;5032595;28;20232;-89
2021/12/13 10:50:41;;;;;;;17.70;12.50;;;6.40;99.90;;;;;;5032283;28;20177;-89
2021/12/13 10:53:17;;;;;;;14.70;10.90;;;6.40;99.90;;;;;;5032711;28;20197;-89
2021/12/13 10:55:48;;;;;;;16.63;11.23;;;6.50;99.90;;;;;;5015865;28;20178;-89
2021/12/13 10:58:27;;;;;;;17.60;12.20;;;6.50;99.90;;;;;;5015794;28;20277;-89
2021/12/13 11:04:49;;;;;;;16.40;11.63;;;6.60;99.90;;;;;;5033523;28;20220;-89
2021/12/13 11:07:15;;;;;;;17.33;11.77;;;6.60;99.90;;;;;;5016129;28;20223;-89
2021/12/13 11:09:43;;;;;;;17.90;12.43;;;6.60;99.90;;;;;;5015908;28;20198;-90
2021/12/13 11:12:13;;;;;;;18.13;11.40;;;6.70;99.90;;;;;;5015951;28;20192;-89
2021/12/13 11:14:46;;;;;;;18.83;11.07;;;6.70;99.90;;;;;;5015703;28;20178;-89
2021/12/13 11:17:19;;;;;;;16.53;11.33;;;6.70;99.90;;;;;;5015785;28;20185;-90
2021/12/13 11:19:48;;;;;;;18.53;10.57;;;6.70;99.90;;;;;;5015437;28;20281;-89
2021/12/13 11:22:20;;;;;;;14.30;10.00;;;6.70;99.90;;;;;;5015628;28;20178;-90
2021/12/13 11:24:50;;;;;;;14.03;9.57;;;6.80;99.90;;;;;;5016117;28;20180;-90
2021/12/13 11:27:24;;;;;;;13.43;9.50;;;6.80;99.90;;;;;;5015762;28;20184;-89
2021/12/13 11:29:52;;;;;;;14.70;9.47;;;6.80;99.90;;;;;;5015683;28;20206;-89
2021/12/13 11:32:37;;;;;;;13.57;9.50;;;6.90;99.90;;;;;;5015604;28;20232;-89
2021/12/13 11:35:15;;;;;;;15.80;10.00;;;7.00;99.90;;;;;;5016175;28;20240;-89
2021/12/13 11:37:56;;;;;;;15.53;10.03;;;7.10;99.90;;;;;;5015702;28;20179;-89
2021/12/13 11:40:39;;;;;;;11.30;8.97;;;7.20;99.90;;;;;;5015348;28;20221;-90
2021/12/13 11:43:25;;;;;;;12.57;8.47;;;7.20;99.90;;;;;;5015573;28;20213;-90
2021/12/13 11:46:29;;;;;;;12.47;8.37;;;7.30;99.90;;;;;;5015351;28;20185;-90
2021/12/13 11:49:30;;;;;;;14.23;9.43;;;7.30;99.90;;;;;;5015088;28;20236;-89
2021/12/13 11:52:36;;;;;;;14.87;9.43;;;7.50;99.90;;;;;;5015364;28;20180;-89
2021/12/13 11:55:14;;;;;;;14.67;10.00;;;7.50;99.90;;;;;;5016072;28;20182;-89
2021/12/13 11:58:17;;;;;;;9.40;7.17;;;7.60;99.90;;;;;;5018515;28;20185;-90
2021/12/13 12:05:05;;;;;;;10.23;7.30;;;7.60;99.90;;;;;;5036538;28;20304;-90
2021/12/13 12:07:40;;;;;;;16.40;10.70;;;7.60;99.90;;;;;;5019177;28;20190;-89
2021/12/13 12:10:44;;;;;;;12.20;8.80;;;7.60;99.90;;;;;;5018336;28;20239;-89
2021/12/13 12:13:38;;;;;;;10.30;7.20;;;7.60;99.90;;;;;;5003476;28;20182;-89
2021/12/13 12:16:06;;;;;;;8.90;6.90;;;7.60;99.90;;;;;;5019024;28;20189;-90
2021/12/13 12:18:36;;;;;;;8.60;6.43;;;7.60;99.90;;;;;;5018210;28;20207;-90
2021/12/13 12:21:36;;;;;;;10.40;6.77;;;7.70;99.90;;;;;;5018437;28;20179;-89
2021/12/13 12:24:42;;;;;;;9.20;6.23;;;7.70;99.90;;;;;;5017930;28;20222;-90
2021/12/13 12:27:20;;;;;;;10.67;7.57;;;7.70;99.90;;;;;;4974967;28;20196;-90
2021/12/13 12:29:53;;;;;;;16.40;9.67;;;7.80;99.90;;;;;;5030771;28;20207;-90
2021/12/13 12:32:30;;;;;;;10.13;7.07;;;7.80;99.90;;;;;;4999000;28;20182;-90
2021/12/13 12:35:01;;;;;;;7.67;6.20;;;7.80;99.90;;;;;;4998728;28;20322;-90
2021/12/13 12:37:48;;;;;;;6.63;5.40;;;7.90;99.90;;;;;;4998759;28;20187;-90
2021/12/13 12:40:24;;;;;;;5.40;4.60;;;7.90;99.90;;;;;;4998377;28;20219;-90
2021/12/13 12:42:53;;;;;;;3.73;3.33;;;7.90;99.90;;;;;;4998443;28;20738;-90
2021/12/13 12:45:21;;;;;;;3.07;2.50;;;7.90;99.90;;;;;;4998769;28;20214;-90
2021/12/13 12:47:47;;;;;;;3.03;2.63;;;7.90;99.90;;;;;;4998856;28;20175;-90
2021/12/13 12:50:15;;;;;;;3.30;2.50;;;7.90;99.90;;;;;;4998173;28;20206;-90
2021/12/13 12:52:52;;;;;;;3.50;2.90;;;7.90;99.90;;;;;;4998400;28;20230;-90
2021/12/13 12:55:23;;;;;;;3.27;2.97;;;7.90;99.90;;;;;;4998294;28;20175;-90
2021/12/13 12:57:50;;;;;;;5.37;4.50;;;8.00;99.90;;;;;;4998584;28;20171;-90
2021/12/13 13:00:23;;;;;;;6.00;4.73;;;8.00;99.90;;;;;;4997909;28;20246;-90
2021/12/13 13:02:50;;;;;;;7.03;4.80;;;8.00;99.90;;;;;;4998062;28;20234;-90
2021/12/13 13:05:22;;;;;;;8.10;5.70;;;8.00;99.90;;;;;;4998711;28;20262;-90
2021/12/13 13:07:52;;;;;;;8.10;6.20;;;8.10;99.90;;;;;;5014530;28;20183;-90
2021/12/13 13:13:11;;;;;;;8.23;5.80;;;8.10;99.90;;;;;;5034385;28;20224;-90
2021/12/13 13:15:45;;;;;;;32.80;20.57;;;8.10;99.90;;;;;;5017447;28;20175;-90
2021/12/13 13:18:17;;;;;;;19.07;13.07;;;8.10;99.90;;;;;;5029018;28;20187;-90
2021/12/13 13:20:57;;;;;;;12.27;8.10;;;8.10;99.90;;;;;;5023131;28;20206;-89
2021/12/13 13:23:26;;;;;;;7.70;6.17;;;8.10;99.90;;;;;;5034386;28;20202;-89
2021/12/13 13:26:02;;;;;;;11.20;7.87;;;8.10;99.90;;;;;;5034269;28;20179;-90
2021/12/13 13:28:38;;;;;;;9.83;8.23;;;8.10;99.90;;;;;;5034195;28;20190;-90
2021/12/13 13:31:51;;;;;;;10.60;7.80;;;8.10;99.90;;;;;;5018658;28;20261;-90
2021/12/13 13:34:24;;;;;;;10.00;7.50;;;8.10;99.90;;;;;;4977772;28;20184;-90
2021/12/13 13:37:00;;;;;;;13.07;8.37;;;8.10;99.90;;;;;;4961667;28;20180;-90
2021/12/13 13:39:34;;;;;;;13.47;9.33;;;8.10;99.90;;;;;;5010739;28;20217;-90
2021/12/13 13:42:09;;;;;;;22.83;15.17;;;8.10;99.90;;;;;;5014558;28;20262;-90
2021/12/13 13:44:58;;;;;;;14.47;9.77;;;8.10;99.90;;;;;;5033936;28;20198;-90
2021/12/13 13:47:31;;;;;;;13.90;8.07;;;8.10;99.90;;;;;;5013572;28;20171;-90
2021/12/13 13:50:14;;;;;;;9.57;6.97;;;8.10;99.90;;;;;;5013805;28;20199;-90
2021/12/13 13:52:44;;;;;;;7.93;6.03;;;8.10;99.90;;;;;;5013547;28;20199;-90
2021/12/13 13:55:24;;;;;;;6.67;5.47;;;8.10;99.90;;;;;;5013782;28;20180;-90
2021/12/13 13:57:57;;;;;;;6.57;5.77;;;8.10;99.90;;;;;;5016478;28;20183;-90
2021/12/13 14:00:31;;;;;;;8.43;5.80;;;8.10;99.90;;;;;;5024857;28;20298;-90
2021/12/13 14:02:57;;;;;;;6.40;5.20;;;8.10;99.90;;;;;;5013397;28;20199;-90
2021/12/13 14:05:23;;;;;;;5.97;5.13;;;8.10;99.90;;;;;;5013425;28;20183;-90